createdAt,value
2017-12-12T00:00:16.038Z,977.42
2017-12-12T00:02:08.935Z,977.47
2017-12-12T00:03:08.952Z,977.47
2017-12-12T00:05:01.988Z,977.55
2017-12-12T00:06:01.987Z,977.57
2017-12-12T00:07:54.884Z,977.57
2017-12-12T00:08:54.899Z,977.61
2017-12-12T00:10:47.819Z,977.64
2017-12-12T00:11:47.815Z,977.66
2017-12-12T00:13:40.714Z,977.69
2017-12-12T00:14:40.728Z,977.71
2017-12-12T00:16:33.645Z,977.80
2017-12-12T00:17:33.641Z,977.79
2017-12-12T00:19:26.556Z,977.82
2017-12-12T00:20:26.553Z,977.88
2017-12-12T00:22:19.626Z,977.85
2017-12-12T00:23:19.643Z,977.89
2017-12-12T00:25:12.558Z,977.93
2017-12-12T00:26:12.556Z,977.95
2017-12-12T00:28:05.452Z,978.00
2017-12-12T00:29:05.470Z,978.05
2017-12-12T00:30:58.385Z,978.06
2017-12-12T00:31:58.383Z,978.12
2017-12-12T00:33:51.282Z,978.18
2017-12-12T00:34:51.295Z,978.22
2017-12-12T00:36:44.210Z,978.29
2017-12-12T00:37:44.209Z,978.32
2017-12-12T00:39:37.121Z,978.39
2017-12-12T00:40:37.117Z,978.41
2017-12-12T00:42:30.013Z,978.49
2017-12-12T00:43:30.030Z,978.50
2017-12-12T00:45:22.942Z,978.57
2017-12-12T00:46:22.938Z,978.61
2017-12-12T00:48:15.834Z,978.63
2017-12-12T00:49:15.850Z,978.68
2017-12-12T00:51:08.761Z,978.71
2017-12-12T00:52:08.757Z,978.72
2017-12-12T00:54:01.655Z,978.78
2017-12-12T00:55:01.668Z,978.77
2017-12-12T00:56:54.584Z,978.82
2017-12-12T00:57:54.581Z,978.81
2017-12-12T00:59:47.494Z,978.86
2017-12-12T01:00:47.488Z,978.85
2017-12-12T01:02:40.384Z,979.00
2017-12-12T01:03:40.399Z,979.04
2017-12-12T01:05:33.313Z,979.12
2017-12-12T01:06:33.308Z,979.13
2017-12-12T01:08:26.201Z,979.19
2017-12-12T01:09:26.218Z,979.25
2017-12-12T01:11:19.131Z,979.26
2017-12-12T01:12:19.126Z,979.31
2017-12-12T01:14:12.018Z,979.39
2017-12-12T01:15:12.033Z,979.39
2017-12-12T01:17:04.950Z,979.47
2017-12-12T01:18:04.947Z,979.52
2017-12-12T01:19:57.857Z,979.59
2017-12-12T01:20:57.855Z,979.64
2017-12-12T01:22:50.756Z,979.69
2017-12-12T01:23:50.771Z,979.68
2017-12-12T01:25:43.685Z,979.79
2017-12-12T01:26:43.679Z,979.82
2017-12-12T01:28:36.572Z,979.87
2017-12-12T01:29:36.587Z,979.89
2017-12-12T01:31:29.498Z,979.97
2017-12-12T01:32:29.496Z,980.02
2017-12-12T01:34:22.388Z,980.06
2017-12-12T01:35:22.405Z,980.08
2017-12-12T01:37:15.311Z,980.13
2017-12-12T01:38:15.309Z,980.17
2017-12-12T01:40:08.218Z,980.23
2017-12-12T01:41:08.214Z,980.30
2017-12-12T01:43:01.106Z,980.35
2017-12-12T01:44:01.120Z,980.42
2017-12-12T01:45:54.032Z,980.58
2017-12-12T01:46:54.027Z,980.63
2017-12-12T01:48:46.924Z,980.77
2017-12-12T01:49:46.934Z,980.82
2017-12-12T01:51:39.846Z,980.90
2017-12-12T01:52:39.841Z,980.87
2017-12-12T01:54:32.735Z,980.96
2017-12-12T01:55:32.746Z,980.95
2017-12-12T01:57:25.660Z,981.06
2017-12-12T01:58:25.653Z,981.10
2017-12-12T02:00:18.564Z,981.16
2017-12-12T02:01:18.559Z,981.23
2017-12-12T02:03:11.460Z,981.28
2017-12-12T02:04:11.473Z,981.36
2017-12-12T02:06:04.384Z,981.39
2017-12-12T02:07:04.380Z,981.45
2017-12-12T02:08:57.272Z,981.54
2017-12-12T02:09:57.285Z,981.53
2017-12-12T02:11:50.368Z,981.59
2017-12-12T02:12:50.361Z,981.62
2017-12-12T02:14:43.257Z,981.75
2017-12-12T02:15:43.275Z,981.80
2017-12-12T02:17:36.382Z,981.87
2017-12-12T02:18:36.373Z,981.93
2017-12-12T02:20:29.286Z,982.00
2017-12-12T02:21:29.279Z,982.02
2017-12-12T02:23:22.171Z,982.06
2017-12-12T02:24:22.187Z,982.15
2017-12-12T02:26:15.096Z,982.22
2017-12-12T02:27:15.094Z,982.25
2017-12-12T02:29:07.984Z,982.34
2017-12-12T02:30:07.996Z,982.37
2017-12-12T02:32:00.907Z,982.51
2017-12-12T02:33:00.910Z,982.53
2017-12-12T02:34:53.791Z,982.56
2017-12-12T02:35:53.805Z,982.57
2017-12-12T02:37:46.717Z,982.67
2017-12-12T02:38:46.711Z,982.65
2017-12-12T02:40:39.621Z,982.76
2017-12-12T02:41:39.617Z,982.79
2017-12-12T02:43:32.513Z,982.89
2017-12-12T02:44:32.526Z,982.89
2017-12-12T02:46:25.439Z,982.96
2017-12-12T02:47:25.434Z,983.01
2017-12-12T02:49:18.322Z,983.06
2017-12-12T02:50:18.335Z,983.08
2017-12-12T02:52:11.244Z,983.18
2017-12-12T02:53:11.244Z,983.20
2017-12-12T02:55:04.137Z,983.26
2017-12-12T02:56:04.145Z,983.30
2017-12-12T02:57:57.224Z,983.34
2017-12-12T02:58:57.217Z,983.39
2017-12-12T03:00:50.131Z,983.38
2017-12-12T03:01:50.123Z,983.41
2017-12-12T03:03:43.018Z,983.55
2017-12-12T03:04:43.040Z,983.57
2017-12-12T03:06:35.940Z,983.65
2017-12-12T03:07:35.937Z,983.66
2017-12-12T03:09:28.832Z,983.74
2017-12-12T03:10:28.845Z,983.74
2017-12-12T03:12:21.755Z,983.83
2017-12-12T03:13:21.751Z,983.91
2017-12-12T03:15:14.642Z,983.97
2017-12-12T03:16:14.654Z,983.98
2017-12-12T03:18:07.567Z,984.01
2017-12-12T03:19:07.563Z,984.07
2017-12-12T03:21:00.481Z,984.13
2017-12-12T03:22:00.468Z,984.17
2017-12-12T03:23:53.363Z,984.32
2017-12-12T03:24:53.376Z,984.39
2017-12-12T03:26:46.285Z,984.46
2017-12-12T03:27:46.283Z,984.50
2017-12-12T03:29:39.170Z,984.60
2017-12-12T03:30:39.185Z,984.65
2017-12-12T03:32:32.092Z,984.70
2017-12-12T03:33:32.089Z,984.72
2017-12-12T03:35:24.980Z,984.82
2017-12-12T03:36:24.999Z,984.82
2017-12-12T03:38:17.904Z,984.91
2017-12-12T03:39:17.899Z,984.99
2017-12-12T03:41:10.810Z,985.08
2017-12-12T03:42:10.804Z,985.13
2017-12-12T03:44:03.695Z,985.18
2017-12-12T03:45:03.709Z,985.22
2017-12-12T03:46:56.624Z,985.31
2017-12-12T03:47:56.617Z,985.32
2017-12-12T03:49:49.507Z,985.47
2017-12-12T03:50:49.521Z,985.49
2017-12-12T03:52:42.429Z,985.59
2017-12-12T03:53:42.427Z,985.65
2017-12-12T03:55:35.325Z,985.72
2017-12-12T03:56:35.330Z,985.78
2017-12-12T03:58:28.253Z,985.84
2017-12-12T03:59:28.237Z,985.91
2017-12-12T04:01:21.148Z,985.98
2017-12-12T04:02:21.143Z,986.04
2017-12-12T04:04:14.037Z,986.06
2017-12-12T04:05:14.049Z,986.16
2017-12-12T04:07:06.961Z,986.23
2017-12-12T04:08:06.956Z,986.25
2017-12-12T04:09:59.846Z,986.27
2017-12-12T04:10:59.874Z,986.36
2017-12-12T04:12:52.774Z,986.44
2017-12-12T04:13:52.767Z,986.50
2017-12-12T04:15:45.659Z,986.61
2017-12-12T04:16:45.673Z,986.68
2017-12-12T04:18:38.587Z,986.74
2017-12-12T04:19:38.581Z,986.85
2017-12-12T04:21:31.491Z,986.84
2017-12-12T04:22:31.486Z,986.86
2017-12-12T04:24:24.375Z,986.91
2017-12-12T04:25:24.391Z,986.95
2017-12-12T04:27:17.301Z,987.00
2017-12-12T04:28:17.297Z,987.07
2017-12-12T04:30:10.188Z,987.16
2017-12-12T04:31:10.200Z,987.13
2017-12-12T04:33:03.113Z,987.24
2017-12-12T04:34:03.109Z,987.26
2017-12-12T04:35:56.002Z,987.32
2017-12-12T04:36:56.017Z,987.39
2017-12-12T04:38:48.926Z,987.42
2017-12-12T04:39:48.924Z,987.44
2017-12-12T04:41:41.831Z,987.54
2017-12-12T04:42:41.826Z,987.58
2017-12-12T04:44:34.717Z,987.65
2017-12-12T04:45:34.732Z,987.70
2017-12-12T04:47:27.644Z,987.77
2017-12-12T04:48:27.639Z,987.82
2017-12-12T04:50:20.530Z,987.90
2017-12-12T04:51:20.543Z,987.92
2017-12-12T04:53:13.455Z,988.06
2017-12-12T04:54:13.447Z,988.12
2017-12-12T04:56:06.350Z,988.19
2017-12-12T04:57:06.364Z,988.22
2017-12-12T04:58:59.270Z,988.36
2017-12-12T04:59:59.266Z,988.37
2017-12-12T05:01:52.180Z,988.46
2017-12-12T05:02:52.177Z,988.46
2017-12-12T05:04:45.069Z,988.50
2017-12-12T05:05:45.081Z,988.58
2017-12-12T05:07:37.994Z,988.69
2017-12-12T05:08:37.986Z,988.70
2017-12-12T05:10:30.879Z,988.87
2017-12-12T05:11:30.892Z,988.90
2017-12-12T05:13:23.802Z,989.01
2017-12-12T05:14:23.798Z,988.99
2017-12-12T05:16:16.694Z,989.06
2017-12-12T05:17:16.700Z,989.05
2017-12-12T05:19:09.616Z,989.19
2017-12-12T05:20:09.625Z,989.22
2017-12-12T05:22:03.534Z,989.24
2017-12-12T05:23:03.531Z,989.22
2017-12-12T05:24:56.425Z,989.25
2017-12-12T05:25:56.439Z,989.26
2017-12-12T05:27:49.351Z,989.29
2017-12-12T05:28:49.347Z,989.35
2017-12-12T05:30:42.242Z,989.37
2017-12-12T05:31:42.255Z,989.44
2017-12-12T05:33:35.165Z,989.53
2017-12-12T05:34:35.158Z,989.54
2017-12-12T05:36:28.068Z,989.62
2017-12-12T05:37:28.065Z,989.70
2017-12-12T05:39:20.982Z,989.76
2017-12-12T05:40:20.978Z,989.72
2017-12-12T05:42:13.890Z,989.86
2017-12-12T05:43:13.884Z,989.86
2017-12-12T05:45:06.781Z,989.96
2017-12-12T05:46:06.796Z,990.00
2017-12-12T05:47:59.706Z,990.10
2017-12-12T05:48:59.702Z,990.14
2017-12-12T05:50:52.593Z,990.23
2017-12-12T05:51:52.609Z,990.26
2017-12-12T05:53:45.523Z,990.31
2017-12-12T05:54:45.519Z,990.32
2017-12-12T05:56:38.655Z,990.43
2017-12-12T05:57:38.636Z,990.48
2017-12-12T05:59:31.528Z,990.54
2017-12-12T06:00:31.543Z,990.62
2017-12-12T06:02:24.453Z,990.71
2017-12-12T06:03:24.451Z,990.71
2017-12-12T06:05:17.343Z,990.81
2017-12-12T06:06:17.359Z,990.80
2017-12-12T06:08:10.267Z,990.90
2017-12-12T06:09:10.263Z,990.97
2017-12-12T06:11:03.156Z,990.96
2017-12-12T06:12:03.189Z,991.04
2017-12-12T06:13:56.091Z,991.07
2017-12-12T06:14:56.130Z,991.13
2017-12-12T06:16:48.998Z,991.09
2017-12-12T06:17:48.981Z,991.12
2017-12-12T06:19:42.052Z,991.20
2017-12-12T06:20:42.066Z,991.28
2017-12-12T06:22:35.128Z,991.31
2017-12-12T06:23:35.124Z,991.36
2017-12-12T06:25:28.015Z,991.41
2017-12-12T06:26:28.036Z,991.45
2017-12-12T06:28:21.138Z,991.55
2017-12-12T06:29:21.135Z,991.55
2017-12-12T06:31:14.174Z,991.65
2017-12-12T06:32:14.188Z,991.66
2017-12-12T06:34:07.249Z,991.75
2017-12-12T06:35:07.245Z,991.78
2017-12-12T06:37:00.156Z,991.81
2017-12-12T06:38:00.151Z,991.80
2017-12-12T06:39:53.042Z,991.85
2017-12-12T06:40:53.055Z,991.89
2017-12-12T06:42:46.114Z,991.91
2017-12-12T06:43:46.107Z,992.00
2017-12-12T06:45:39.004Z,992.06
2017-12-12T06:46:39.018Z,992.12
2017-12-12T06:48:31.930Z,992.14
2017-12-12T06:49:31.928Z,992.16
2017-12-12T06:51:24.821Z,992.17
2017-12-12T06:52:24.832Z,992.21
2017-12-12T06:54:17.743Z,992.24
2017-12-12T06:55:17.740Z,992.26
2017-12-12T06:57:10.652Z,992.37
2017-12-12T06:58:10.656Z,992.40
2017-12-12T07:00:03.718Z,992.42
2017-12-12T07:01:03.732Z,992.44
2017-12-12T07:02:56.793Z,992.51
2017-12-12T07:03:56.797Z,992.54
2017-12-12T07:05:49.681Z,992.58
2017-12-12T07:06:49.697Z,992.62
2017-12-12T07:08:42.605Z,992.75
2017-12-12T07:09:42.602Z,992.74
2017-12-12T07:11:35.497Z,992.85
2017-12-12T07:12:35.559Z,992.85
2017-12-12T07:14:28.431Z,992.95
2017-12-12T07:15:28.425Z,992.93
2017-12-12T07:17:21.337Z,992.99
2017-12-12T07:18:21.333Z,993.03
2017-12-12T07:20:14.394Z,993.07
2017-12-12T07:21:14.409Z,993.10
2017-12-12T07:23:07.468Z,993.14
2017-12-12T07:24:07.465Z,993.19
2017-12-12T07:26:00.358Z,993.25
2017-12-12T07:27:00.374Z,993.21
2017-12-12T07:28:53.283Z,993.30
2017-12-12T07:29:53.279Z,993.30
2017-12-12T07:31:46.312Z,993.36
2017-12-12T07:32:46.329Z,993.39
2017-12-12T07:34:39.248Z,993.40
2017-12-12T07:35:39.246Z,993.42
2017-12-12T07:37:32.343Z,993.43
2017-12-12T07:38:32.349Z,993.42
2017-12-12T07:40:25.231Z,993.46
2017-12-12T07:41:25.248Z,993.51
2017-12-12T07:43:18.160Z,993.60
2017-12-12T07:44:18.156Z,993.66
2017-12-12T07:46:11.049Z,993.74
2017-12-12T07:47:11.063Z,993.73
2017-12-12T07:49:03.976Z,993.81
2017-12-12T07:50:03.973Z,993.83
2017-12-12T07:51:57.005Z,993.87
2017-12-12T07:52:57.018Z,993.92
2017-12-12T07:54:49.938Z,993.93
2017-12-12T07:55:49.971Z,993.98
2017-12-12T07:57:42.846Z,993.98
2017-12-12T07:58:42.841Z,994.09
2017-12-12T08:00:35.732Z,994.14
2017-12-12T08:01:35.748Z,994.13
2017-12-12T08:03:28.658Z,994.19
2017-12-12T08:04:28.655Z,994.21
2017-12-12T08:06:21.546Z,994.30
2017-12-12T08:07:21.560Z,994.33
2017-12-12T08:09:14.470Z,994.35
2017-12-12T08:10:14.468Z,994.32
2017-12-12T08:12:07.364Z,994.33
2017-12-12T08:13:07.378Z,994.36
2017-12-12T08:15:00.291Z,994.43
2017-12-12T08:16:00.289Z,994.44
2017-12-12T08:17:53.204Z,994.51
2017-12-12T08:18:53.194Z,994.57
2017-12-12T08:20:46.092Z,994.65
2017-12-12T08:21:46.106Z,994.69
2017-12-12T08:23:39.018Z,994.74
2017-12-12T08:24:39.013Z,994.73
2017-12-12T08:26:31.908Z,994.88
2017-12-12T08:27:31.922Z,994.87
2017-12-12T08:29:24.831Z,994.89
2017-12-12T08:30:24.826Z,995.01
2017-12-12T08:32:17.723Z,995.03
2017-12-12T08:33:17.733Z,995.06
2017-12-12T08:35:10.645Z,995.15
2017-12-12T08:36:10.640Z,995.09
2017-12-12T08:38:03.551Z,995.13
2017-12-12T08:39:03.573Z,995.15
2017-12-12T08:40:56.439Z,995.17
2017-12-12T08:41:56.453Z,995.20
2017-12-12T08:43:49.367Z,995.25
2017-12-12T08:44:49.372Z,995.31
2017-12-12T08:46:42.256Z,995.37
2017-12-12T08:47:42.269Z,995.41
2017-12-12T08:49:35.179Z,995.47
2017-12-12T08:50:35.176Z,995.46
2017-12-12T08:52:28.073Z,995.54
2017-12-12T08:53:28.086Z,995.53
2017-12-12T08:55:20.998Z,995.56
2017-12-12T08:56:20.995Z,995.59
2017-12-12T08:58:13.908Z,995.57
2017-12-12T08:59:13.901Z,995.65
2017-12-12T09:01:06.795Z,995.66
2017-12-12T09:02:06.806Z,995.68
2017-12-12T09:03:59.724Z,995.67
2017-12-12T09:04:59.717Z,995.69
2017-12-12T09:06:52.608Z,995.75
2017-12-12T09:07:52.622Z,995.74
2017-12-12T09:09:45.535Z,995.87
2017-12-12T09:10:45.531Z,995.83
2017-12-12T09:12:38.420Z,995.90
2017-12-12T09:13:38.436Z,995.94
2017-12-12T09:15:31.346Z,995.96
2017-12-12T09:16:31.342Z,995.94
2017-12-12T09:18:24.256Z,996.07
2017-12-12T09:19:24.268Z,996.10
2017-12-12T09:21:17.191Z,996.20
2017-12-12T09:22:17.162Z,996.18
2017-12-12T09:24:10.077Z,996.19
2017-12-12T09:25:10.070Z,996.25
2017-12-12T09:27:03.032Z,996.27
2017-12-12T09:28:02.979Z,996.31
2017-12-12T09:29:55.893Z,996.45
2017-12-12T09:30:55.889Z,996.48
2017-12-12T09:32:48.778Z,996.45
2017-12-12T09:33:48.793Z,996.49
2017-12-12T09:35:41.707Z,996.56
2017-12-12T09:36:41.704Z,996.55
2017-12-12T09:38:34.612Z,996.61
2017-12-12T09:39:34.609Z,996.67
2017-12-12T09:41:27.505Z,996.66
2017-12-12T09:42:27.517Z,996.64
2017-12-12T09:44:20.428Z,996.70
2017-12-12T09:45:20.423Z,996.73
2017-12-12T09:47:13.316Z,996.75
2017-12-12T09:48:13.333Z,996.79
2017-12-12T09:50:06.245Z,996.79
2017-12-12T09:51:06.240Z,996.83
2017-12-12T09:52:59.140Z,996.89
2017-12-12T09:53:59.152Z,996.90
2017-12-12T09:55:52.066Z,996.97
2017-12-12T09:56:52.064Z,996.94
2017-12-12T09:58:44.972Z,996.98
2017-12-12T09:59:44.967Z,997.02
2017-12-12T10:01:37.865Z,997.04
2017-12-12T10:02:37.876Z,997.07
2017-12-12T10:04:30.788Z,997.12
2017-12-12T10:05:30.783Z,997.20
2017-12-12T10:07:23.682Z,997.23
2017-12-12T10:08:23.693Z,997.23
2017-12-12T10:10:16.604Z,997.25
2017-12-12T10:11:16.600Z,997.23
2017-12-12T10:13:09.493Z,997.30
2017-12-12T10:14:09.508Z,997.35
2017-12-12T10:16:02.423Z,997.37
2017-12-12T10:17:02.418Z,997.42
2017-12-12T10:18:55.334Z,997.51
2017-12-12T10:19:55.328Z,997.49
2017-12-12T10:21:48.365Z,997.48
2017-12-12T10:22:48.381Z,997.54
2017-12-12T10:24:41.298Z,997.54
2017-12-12T10:25:41.292Z,997.54
2017-12-12T10:27:34.189Z,997.64
2017-12-12T10:28:34.201Z,997.60
2017-12-12T10:30:27.115Z,997.65
2017-12-12T10:31:27.112Z,997.71
2017-12-12T10:33:20.207Z,997.73
2017-12-12T10:34:20.206Z,997.76
2017-12-12T10:36:13.120Z,997.85
2017-12-12T10:37:13.116Z,997.86
2017-12-12T10:39:06.030Z,997.90
2017-12-12T10:40:06.027Z,997.90
2017-12-12T10:41:58.932Z,997.92
2017-12-12T10:42:58.940Z,997.96
2017-12-12T10:44:52.011Z,998.05
2017-12-12T10:45:52.006Z,998.01
2017-12-12T10:47:45.051Z,998.08
2017-12-12T10:48:45.062Z,998.00
2017-12-12T10:50:38.129Z,998.02
2017-12-12T10:51:38.125Z,998.02
2017-12-12T10:53:31.185Z,998.11
2017-12-12T10:54:31.178Z,998.11
2017-12-12T10:56:24.220Z,998.14
2017-12-12T10:57:24.257Z,998.22
2017-12-12T10:59:17.322Z,998.22
2017-12-12T11:00:17.316Z,998.22
2017-12-12T11:02:10.460Z,998.29
2017-12-12T11:03:10.452Z,998.21
2017-12-12T11:05:03.360Z,998.29
2017-12-12T11:06:03.354Z,998.36
2017-12-12T11:07:56.448Z,998.38
2017-12-12T11:08:56.463Z,998.38
2017-12-12T11:10:49.379Z,998.44
2017-12-12T11:11:49.372Z,998.45
2017-12-12T11:13:42.284Z,998.46
2017-12-12T11:14:42.285Z,998.50
2017-12-12T11:16:36.026Z,998.53
2017-12-12T11:17:35.324Z,998.55
2017-12-12T11:19:28.240Z,998.56
2017-12-12T11:20:28.236Z,998.61
2017-12-12T11:22:21.129Z,998.62
2017-12-12T11:23:21.142Z,998.66
2017-12-12T11:25:14.052Z,998.68
2017-12-12T11:26:14.050Z,998.70
2017-12-12T11:28:06.945Z,998.72
2017-12-12T11:29:06.959Z,998.69
2017-12-12T11:31:00.095Z,998.75
2017-12-12T11:32:00.093Z,998.75
2017-12-12T11:33:53.003Z,998.82
2017-12-12T11:34:53.001Z,998.84
2017-12-12T11:36:46.090Z,998.89
2017-12-12T11:37:46.106Z,998.86
2017-12-12T11:39:39.157Z,998.91
2017-12-12T11:40:39.156Z,998.96
2017-12-12T11:42:32.050Z,999.04
2017-12-12T11:43:32.066Z,999.00
2017-12-12T11:45:25.174Z,999.14
2017-12-12T11:46:25.171Z,999.11
2017-12-12T11:48:18.065Z,999.15
2017-12-12T11:49:18.079Z,999.22
2017-12-12T11:51:11.185Z,999.21
2017-12-12T11:52:11.179Z,999.19
2017-12-12T11:54:04.238Z,999.22
2017-12-12T11:55:04.237Z,999.27
2017-12-12T11:56:57.280Z,999.26
2017-12-12T11:57:57.314Z,999.35
2017-12-12T11:59:50.212Z,999.34
2017-12-12T12:00:50.205Z,999.40
2017-12-12T12:02:43.594Z,999.40
2017-12-12T12:03:43.609Z,999.41
2017-12-12T12:05:36.524Z,999.44
2017-12-12T12:06:36.520Z,999.45
2017-12-12T12:08:29.604Z,999.53
2017-12-12T12:09:29.619Z,999.58
2017-12-12T12:11:22.680Z,999.54
2017-12-12T12:12:22.674Z,999.62
2017-12-12T12:14:15.592Z,999.63
2017-12-12T12:15:15.587Z,999.65
2017-12-12T12:17:08.482Z,999.65
2017-12-12T12:18:08.496Z,999.66
2017-12-12T12:20:01.549Z,999.64
2017-12-12T12:21:01.541Z,999.66
2017-12-12T12:22:54.585Z,999.72
2017-12-12T12:23:54.601Z,999.77
2017-12-12T12:25:47.662Z,999.83
2017-12-12T12:26:47.657Z,999.86
2017-12-12T12:28:40.555Z,999.91
2017-12-12T12:29:40.571Z,999.97
2017-12-12T12:31:33.481Z,999.97
2017-12-12T12:32:33.478Z,999.96
2017-12-12T12:34:26.398Z,1000.05
2017-12-12T12:35:26.392Z,1000.08
2017-12-12T12:37:19.459Z,1000.06
2017-12-12T12:38:19.474Z,1000.12
2017-12-12T12:40:12.536Z,1000.12
2017-12-12T12:41:12.532Z,1000.11
2017-12-12T12:43:05.571Z,1000.21
2017-12-12T12:44:05.587Z,1000.27
2017-12-12T12:45:58.691Z,1000.33
2017-12-12T12:46:58.643Z,1000.36
2017-12-12T12:48:51.691Z,1000.43
2017-12-12T12:49:51.711Z,1000.45
2017-12-12T12:51:44.771Z,1000.52
2017-12-12T12:52:44.769Z,1000.54
2017-12-12T12:54:37.681Z,1000.54
2017-12-12T12:55:37.678Z,1000.60
2017-12-12T12:57:30.762Z,1000.55
2017-12-12T12:58:30.778Z,1000.61
2017-12-12T13:00:23.829Z,1000.71
2017-12-12T13:01:23.824Z,1000.69
2017-12-12T13:03:17.219Z,1000.74
2017-12-12T13:04:17.234Z,1000.78
2017-12-12T13:06:10.357Z,1000.79
2017-12-12T13:07:10.352Z,1000.79
2017-12-12T13:09:03.390Z,1000.80
2017-12-12T13:10:03.405Z,1000.84
2017-12-12T13:11:56.322Z,1000.90
2017-12-12T13:12:56.318Z,1000.85
2017-12-12T13:14:49.263Z,1000.86
2017-12-12T13:15:49.229Z,1000.97
2017-12-12T13:17:42.363Z,1001.00
2017-12-12T13:18:42.377Z,1001.00
2017-12-12T13:20:35.627Z,1001.12
2017-12-12T13:21:35.623Z,1001.06
2017-12-12T13:23:28.572Z,1001.03
2017-12-12T13:24:28.596Z,1001.08
2017-12-12T13:26:22.035Z,1001.08
2017-12-12T13:27:22.032Z,1001.09
2017-12-12T13:29:16.503Z,1001.16
2017-12-12T13:30:16.522Z,1001.16
2017-12-12T13:32:09.480Z,1001.14
2017-12-12T13:33:09.480Z,1001.20
2017-12-12T13:35:02.431Z,1001.20
2017-12-12T13:36:02.428Z,1001.28
2017-12-12T13:37:55.880Z,1001.31
2017-12-12T13:38:55.894Z,1001.33
2017-12-12T13:40:48.853Z,1001.34
2017-12-12T13:41:48.854Z,1001.39
2017-12-12T13:43:42.326Z,1001.43
2017-12-12T13:44:42.323Z,1001.44
2017-12-12T13:46:36.812Z,1001.50
2017-12-12T13:47:36.810Z,1001.52
2017-12-12T13:49:31.281Z,1001.61
2017-12-12T13:50:31.297Z,1001.61
2017-12-12T13:52:24.773Z,1001.67
2017-12-12T13:53:24.775Z,1001.70
2017-12-12T13:55:17.721Z,1001.71
2017-12-12T13:56:17.721Z,1001.73
2017-12-12T13:58:11.175Z,1001.76
2017-12-12T13:59:11.192Z,1001.78
2017-12-12T14:01:05.699Z,1001.79
2017-12-12T14:02:05.701Z,1001.91
2017-12-12T14:04:00.154Z,1001.95
2017-12-12T14:05:00.174Z,1001.90
2017-12-12T14:06:53.124Z,1002.02
2017-12-12T14:07:53.323Z,1002.05
2017-12-12T14:09:46.604Z,1002.12
2017-12-12T14:10:46.585Z,1002.08
2017-12-12T14:12:40.091Z,1002.18
2017-12-12T14:13:40.068Z,1002.13
2017-12-12T14:15:34.549Z,1002.22
2017-12-12T14:16:34.544Z,1002.22
2017-12-12T14:18:28.063Z,1002.28
2017-12-12T14:19:28.070Z,1002.30
2017-12-12T14:21:21.639Z,1002.36
2017-12-12T14:22:21.538Z,1002.39
2017-12-12T14:24:14.992Z,1002.37
2017-12-12T14:25:15.006Z,1002.43
2017-12-12T14:27:08.521Z,1002.46
2017-12-12T14:28:09.457Z,1002.53
2017-12-12T14:30:01.985Z,1002.56
2017-12-12T14:31:01.891Z,1002.57
2017-12-12T14:32:56.384Z,1002.62
2017-12-12T14:33:56.367Z,1002.55
2017-12-12T14:35:52.393Z,1002.64
2017-12-12T14:36:52.407Z,1002.68
2017-12-12T14:38:45.840Z,1002.74
2017-12-12T14:39:45.854Z,1002.79
2017-12-12T14:41:38.818Z,1002.83
2017-12-12T14:42:38.806Z,1002.81
2017-12-12T14:44:34.719Z,1002.86
2017-12-12T14:45:34.728Z,1002.85
2017-12-12T14:47:28.313Z,1002.90
2017-12-12T14:48:28.198Z,1002.93
2017-12-12T14:50:21.670Z,1003.04
2017-12-12T14:51:21.666Z,1002.99
2017-12-12T14:53:15.114Z,1003.10
2017-12-12T14:54:15.190Z,1003.12
2017-12-12T14:56:08.605Z,1003.19
2017-12-12T14:57:08.603Z,1003.19
2017-12-12T14:59:02.067Z,1003.22
2017-12-12T15:00:02.064Z,1003.28
2017-12-12T15:01:55.561Z,1003.37
2017-12-12T15:02:55.542Z,1003.35
2017-12-12T15:04:48.473Z,1003.36
2017-12-12T15:05:48.483Z,1003.41
2017-12-12T15:07:41.957Z,1003.46
2017-12-12T15:08:41.949Z,1003.50
2017-12-12T15:10:36.447Z,1003.54
2017-12-12T15:11:36.440Z,1003.60
2017-12-12T15:13:30.916Z,1003.60
2017-12-12T15:14:30.932Z,1003.61
2017-12-12T15:16:23.891Z,1003.67
2017-12-12T15:17:23.883Z,1003.64
2017-12-12T15:19:17.337Z,1003.75
2017-12-12T15:20:17.352Z,1003.72
2017-12-12T15:22:10.817Z,1003.78
2017-12-12T15:23:10.814Z,1003.80
2017-12-12T15:25:03.817Z,1003.84
2017-12-12T15:26:03.784Z,1003.86
2017-12-12T15:27:57.243Z,1003.89
2017-12-12T15:28:57.239Z,1003.88
2017-12-12T15:30:50.723Z,1003.98
2017-12-12T15:31:50.719Z,1004.01
2017-12-12T15:33:44.186Z,1004.03
2017-12-12T15:34:44.202Z,1004.07
2017-12-12T15:36:37.126Z,1004.08
2017-12-12T15:37:37.143Z,1004.10
2017-12-12T15:39:30.584Z,1004.13
2017-12-12T15:40:30.598Z,1004.16
2017-12-12T15:42:23.715Z,1004.20
2017-12-12T15:43:23.646Z,1004.23
2017-12-12T15:45:17.146Z,1004.29
2017-12-12T15:46:17.140Z,1004.28
2017-12-12T15:48:10.589Z,1004.32
2017-12-12T15:49:10.588Z,1004.32
2017-12-12T15:51:04.059Z,1004.35
2017-12-12T15:52:04.055Z,1004.41
2017-12-12T15:53:58.010Z,1004.48
2017-12-12T15:54:58.046Z,1004.48
2017-12-12T15:56:50.980Z,1004.45
2017-12-12T15:57:50.974Z,1004.49
2017-12-12T15:59:43.914Z,1004.46
2017-12-12T16:00:43.927Z,1004.48
2017-12-12T16:02:37.610Z,1004.55
2017-12-12T16:03:37.987Z,1004.53
2017-12-12T16:05:32.558Z,1004.52
2017-12-12T16:06:32.190Z,1004.54
2017-12-12T16:08:26.747Z,1004.55
2017-12-12T16:09:25.659Z,1004.56
2017-12-12T16:11:20.151Z,1004.62
2017-12-12T16:12:20.146Z,1004.62
2017-12-12T16:14:13.611Z,1004.68
2017-12-12T16:15:13.626Z,1004.68
2017-12-12T16:17:07.098Z,1004.72
2017-12-12T16:18:07.090Z,1004.79
2017-12-12T16:20:00.530Z,1004.77
2017-12-12T16:21:00.554Z,1004.77
2017-12-12T16:22:55.045Z,1004.80
2017-12-12T16:23:55.039Z,1004.88
2017-12-12T16:25:48.504Z,1004.89
2017-12-12T16:26:48.500Z,1004.87
2017-12-12T16:28:41.440Z,1004.95
2017-12-12T16:29:41.463Z,1004.97
2017-12-12T16:31:34.931Z,1005.08
2017-12-12T16:32:34.923Z,1005.07
2017-12-12T16:34:27.862Z,1005.04
2017-12-12T16:35:27.874Z,1005.08
2017-12-12T16:37:20.837Z,1005.09
2017-12-12T16:38:20.830Z,1005.09
2017-12-12T16:40:14.278Z,1005.09
2017-12-12T16:41:14.293Z,1005.13
2017-12-12T16:43:07.767Z,1005.09
2017-12-12T16:44:07.763Z,1005.13
2017-12-12T16:46:00.722Z,1005.18
2017-12-12T16:47:00.715Z,1005.18
2017-12-12T16:48:54.169Z,1005.20
2017-12-12T16:49:54.184Z,1005.20
2017-12-12T16:51:47.143Z,1005.22
2017-12-12T16:52:47.139Z,1005.23
2017-12-12T16:54:41.613Z,1005.26
2017-12-12T16:55:41.629Z,1005.25
2017-12-12T16:57:35.102Z,1005.30
2017-12-12T16:58:35.090Z,1005.22
2017-12-12T17:00:28.557Z,1005.30
2017-12-12T17:01:28.566Z,1005.32
2017-12-12T17:03:22.030Z,1005.37
2017-12-12T17:04:22.024Z,1005.41
2017-12-12T17:06:14.984Z,1005.40
2017-12-12T17:07:14.994Z,1005.48
2017-12-12T17:09:09.459Z,1005.53
2017-12-12T17:10:09.471Z,1005.51
2017-12-12T17:12:02.440Z,1005.51
2017-12-12T17:13:02.436Z,1005.57
2017-12-12T17:14:55.876Z,1005.62
2017-12-12T17:15:55.891Z,1005.61
2017-12-12T17:17:48.846Z,1005.67
2017-12-12T17:18:48.841Z,1005.73
2017-12-12T17:20:42.300Z,1005.74
2017-12-12T17:21:42.316Z,1005.75
2017-12-12T17:23:35.791Z,1005.84
2017-12-12T17:24:35.782Z,1005.81
2017-12-12T17:26:29.246Z,1005.89
2017-12-12T17:27:29.241Z,1005.93
2017-12-12T17:29:22.690Z,1005.98
2017-12-12T17:30:22.709Z,1005.97
2017-12-12T17:32:15.670Z,1006.04
2017-12-12T17:33:15.666Z,1006.03
2017-12-12T17:35:08.601Z,1006.09
2017-12-12T17:36:08.615Z,1006.06
2017-12-12T17:38:01.599Z,1006.08
2017-12-12T17:39:01.568Z,1006.12
2017-12-12T17:40:54.510Z,1006.16
2017-12-12T17:41:54.526Z,1006.13
2017-12-12T17:43:47.487Z,1006.22
2017-12-12T17:44:47.482Z,1006.23
2017-12-12T17:46:41.975Z,1006.21
2017-12-12T17:47:41.971Z,1006.20
2017-12-12T17:49:35.521Z,1006.24